Time;durP1;ratioP1;P1;durP2;ratioP2;P2;SDS_P1;SDS_P2;PMS_P1;PMS_P2;Temp;Humidity;BMP_temperature;BMP_pressure;BME280_temperature;BME280_humidity;BME280_pressure;Samples;Min_cycle;Max_cycle;Signal;HPM_P1;HPM_P2
2023/08/26 00:04:16;;;;;;;24.95;22.45;;;;;;;;;;10255354;28;20045;-65
2023/08/26 00:09:13;;;;;;;25.42;22.88;;;;;;;;;;10255326;28;20422;-66
2023/08/26 00:14:09;;;;;;;25.67;23.02;;;;;;;;;;10262042;28;20482;-67
2023/08/26 00:19:05;;;;;;;25.10;22.67;;;;;;;;;;10249867;28;20404;-66
2023/08/26 00:24:02;;;;;;;23.98;21.67;;;;;;;;;;10260591;28;20044;-67
2023/08/26 00:28:58;;;;;;;24.08;21.60;;;;;;;;;;10255275;28;20053;-67
2023/08/26 00:33:54;;;;;;;25.52;22.85;;;;;;;;;;10260694;28;20069;-67
2023/08/26 00:38:50;;;;;;;24.88;22.38;;;;;;;;;;10253909;28;20056;-67
2023/08/26 00:43:47;;;;;;;28.67;25.67;;;;;;;;;;10264386;28;20045;-68
2023/08/26 00:48:44;;;;;;;28.27;25.27;;;;;;;;;;10256712;28;20462;-65
2023/08/26 00:53:40;;;;;;;32.55;29.23;;;;;;;;;;10254214;28;20529;-65
2023/08/26 00:58:36;;;;;;;33.72;30.15;;;;;;;;;;10255676;28;20578;-65
2023/08/26 01:03:33;;;;;;;33.47;29.98;;;;;;;;;;10256518;28;20046;-67
2023/08/26 01:08:30;;;;;;;35.15;31.45;;;;;;;;;;10251916;28;20625;-69
2023/08/26 01:13:29;;;;;;;35.17;31.10;;;;;;;;;;10254675;28;20049;-67
2023/08/26 01:18:26;;;;;;;37.63;33.53;;;;;;;;;;10260243;28;20122;-66
2023/08/26 01:23:34;;;;;;;39.72;35.47;;;;;;;;;;10261381;28;20049;-66
2023/08/26 01:28:30;;;;;;;36.83;32.97;;;;;;;;;;10254377;28;20457;-66
2023/08/26 01:33:28;;;;;;;42.15;34.38;;;;;;;;;;10253645;28;20056;-66
2023/08/26 01:38:25;;;;;;;39.38;35.13;;;;;;;;;;10262407;28;20643;-66
2023/08/26 01:43:22;;;;;;;40.08;35.70;;;;;;;;;;10256830;28;20144;-67
2023/08/26 01:48:19;;;;;;;39.38;35.10;;;;;;;;;;10268469;28;20064;-66
2023/08/26 01:53:15;;;;;;;40.25;35.95;;;;;;;;;;10261504;28;20053;-66
2023/08/26 01:58:11;;;;;;;40.85;35.60;;;;;;;;;;10251518;28;20564;-67
2023/08/26 02:03:07;;;;;;;45.13;38.05;;;;;;;;;;10261482;28;20048;-66
2023/08/26 02:08:04;;;;;;;47.72;40.35;;;;;;;;;;10264528;28;20040;-66
2023/08/26 02:13:00;;;;;;;40.58;36.33;;;;;;;;;;10258341;28;20052;-66
2023/08/26 02:17:56;;;;;;;43.78;39.03;;;;;;;;;;10261820;28;20608;-66
2023/08/26 02:22:53;;;;;;;46.33;40.10;;;;;;;;;;10265596;28;20163;-66
2023/08/26 02:27:49;;;;;;;43.50;37.90;;;;;;;;;;10271498;28;20537;-67
2023/08/26 02:32:46;;;;;;;46.63;40.05;;;;;;;;;;10256037;28;20518;-66
2023/08/26 02:37:42;;;;;;;49.47;41.75;;;;;;;;;;10251455;28;20049;-65
2023/08/26 02:42:38;;;;;;;47.78;41.05;;;;;;;;;;10259318;28;20163;-66
2023/08/26 02:47:35;;;;;;;46.60;40.30;;;;;;;;;;10262238;28;20092;-66
2023/08/26 02:52:31;;;;;;;43.22;38.60;;;;;;;;;;10259318;28;20767;-66
2023/08/26 02:57:27;;;;;;;54.17;43.70;;;;;;;;;;10256179;28;20093;-66
2023/08/26 03:02:24;;;;;;;51.55;45.90;;;;;;;;;;10255395;28;20060;-65
2023/08/26 03:07:21;;;;;;;48.20;43.17;;;;;;;;;;10252985;28;20054;-65
2023/08/26 03:12:17;;;;;;;49.33;43.35;;;;;;;;;;10262870;28;20056;-66
2023/08/26 03:17:14;;;;;;;47.38;42.20;;;;;;;;;;10259734;28;20060;-66
2023/08/26 03:22:10;;;;;;;49.17;41.83;;;;;;;;;;10259627;28;20083;-66
2023/08/26 03:27:06;;;;;;;48.45;41.63;;;;;;;;;;10254126;28;20060;-66
2023/08/26 03:32:03;;;;;;;45.67;39.42;;;;;;;;;;10264478;28;20053;-66
2023/08/26 03:36:59;;;;;;;47.90;42.40;;;;;;;;;;10260426;28;20071;-66
2023/08/26 03:41:55;;;;;;;45.58;39.55;;;;;;;;;;10267719;28;20549;-66
2023/08/26 03:46:52;;;;;;;48.75;40.42;;;;;;;;;;10263006;28;20045;-66
2023/08/26 03:51:48;;;;;;;42.80;37.30;;;;;;;;;;10252879;28;20064;-66
2023/08/26 03:56:44;;;;;;;51.47;38.97;;;;;;;;;;10251285;28;20076;-65
2023/08/26 04:01:41;;;;;;;50.28;37.35;;;;;;;;;;10259347;28;20054;-66
2023/08/26 04:06:37;;;;;;;49.95;40.40;;;;;;;;;;10256759;28;21412;-66
2023/08/26 04:11:33;;;;;;;47.00;39.33;;;;;;;;;;10256656;28;20434;-65
2023/08/26 04:16:29;;;;;;;46.63;39.67;;;;;;;;;;10264000;28;20136;-65
2023/08/26 04:21:26;;;;;;;45.72;38.08;;;;;;;;;;10247805;28;20136;-66
2023/08/26 04:26:23;;;;;;;47.22;38.47;;;;;;;;;;10250386;28;20045;-66
2023/08/26 04:31:19;;;;;;;44.15;38.03;;;;;;;;;;10253204;28;20419;-66
2023/08/26 04:36:15;;;;;;;41.83;37.05;;;;;;;;;;10258569;28;20148;-67
2023/08/26 04:41:12;;;;;;;48.90;38.60;;;;;;;;;;10260265;28;20053;-66
2023/08/26 04:46:08;;;;;;;50.15;38.13;;;;;;;;;;10254556;28;20130;-67
2023/08/26 04:51:05;;;;;;;47.50;38.13;;;;;;;;;;10257985;28;20049;-66
2023/08/26 04:56:03;;;;;;;48.00;35.97;;;;;;;;;;10248930;28;20099;-66
2023/08/26 05:00:59;;;;;;;50.38;35.95;;;;;;;;;;10258381;28;20068;-66
2023/08/26 05:05:55;;;;;;;46.28;34.53;;;;;;;;;;10245839;28;20100;-66
2023/08/26 05:10:52;;;;;;;44.55;32.75;;;;;;;;;;10254752;28;20573;-66
2023/08/26 05:15:48;;;;;;;44.85;33.50;;;;;;;;;;10250475;28;20085;-66
2023/08/26 05:20:45;;;;;;;39.45;32.65;;;;;;;;;;10259840;28;20454;-66
2023/08/26 05:25:43;;;;;;;38.80;31.15;;;;;;;;;;10245717;28;20535;-66
2023/08/26 05:30:39;;;;;;;36.78;30.35;;;;;;;;;;10243951;28;20044;-67
2023/08/26 05:35:36;;;;;;;30.95;27.55;;;;;;;;;;10256270;28;20057;-66
2023/08/26 05:40:33;;;;;;;34.92;27.02;;;;;;;;;;10259702;28;20088;-67
2023/08/26 05:45:31;;;;;;;30.15;25.75;;;;;;;;;;10258447;28;20052;-66
2023/08/26 05:50:27;;;;;;;34.92;27.10;;;;;;;;;;10265980;28;20049;-66
2023/08/26 05:55:23;;;;;;;30.50;26.08;;;;;;;;;;10244507;28;20103;-67
2023/08/26 06:00:20;;;;;;;30.92;27.15;;;;;;;;;;10265905;28;20060;-66
2023/08/26 06:05:16;;;;;;;32.67;27.15;;;;;;;;;;10266182;28;20794;-66
2023/08/26 06:10:13;;;;;;;33.10;26.50;;;;;;;;;;10267223;28;20064;-66
2023/08/26 06:15:09;;;;;;;36.58;27.55;;;;;;;;;;10246670;28;20057;-66
2023/08/26 06:20:06;;;;;;;34.67;26.17;;;;;;;;;;10245190;28;20061;-66
2023/08/26 06:25:02;;;;;;;27.42;23.98;;;;;;;;;;10245108;28;20099;-67
2023/08/26 06:30:02;;;;;;;27.13;22.77;;;;;;;;;;10251879;28;20388;-67
2023/08/26 06:35:00;;;;;;;28.58;22.73;;;;;;;;;;10246766;28;21414;-67
2023/08/26 06:39:56;;;;;;;28.52;20.88;;;;;;;;;;10248262;28;20057;-66
2023/08/26 06:44:54;;;;;;;21.27;19.02;;;;;;;;;;10263192;28;20083;-66
2023/08/26 06:49:50;;;;;;;20.40;17.23;;;;;;;;;;10264762;28;20095;-66
2023/08/26 06:54:46;;;;;;;18.90;16.60;;;;;;;;;;10260767;28;20506;-66
2023/08/26 06:59:43;;;;;;;19.65;16.85;;;;;;;;;;10263271;28;20049;-65
2023/08/26 07:04:42;;;;;;;18.17;16.25;;;;;;;;;;10263906;28;20057;-65
2023/08/26 07:09:39;;;;;;;16.25;14.32;;;;;;;;;;10261518;28;20046;-65
2023/08/26 07:14:35;;;;;;;15.95;13.95;;;;;;;;;;10243393;28;20190;-65
2023/08/26 07:19:31;;;;;;;12.57;11.13;;;;;;;;;;10247200;28;20514;-65
2023/08/26 07:24:29;;;;;;;11.98;10.77;;;;;;;;;;10245677;28;20805;-65
2023/08/26 07:29:25;;;;;;;14.93;10.65;;;;;;;;;;10256493;28;20183;-66
2023/08/26 07:34:22;;;;;;;11.95;10.75;;;;;;;;;;10252793;28;20538;-69
2023/08/26 07:39:18;;;;;;;12.00;10.80;;;;;;;;;;10241606;28;20065;-69
2023/08/26 07:44:14;;;;;;;12.63;10.27;;;;;;;;;;10250114;28;20115;-69
2023/08/26 07:49:11;;;;;;;11.73;10.00;;;;;;;;;;10257539;28;20077;-69
2023/08/26 07:54:07;;;;;;;11.35;10.35;;;;;;;;;;10251244;28;20073;-69
2023/08/26 07:59:03;;;;;;;9.75;8.77;;;;;;;;;;10253701;28;20146;-69
2023/08/26 08:04:00;;;;;;;10.57;9.55;;;;;;;;;;10259801;28;20045;-69
2023/08/26 08:08:56;;;;;;;14.63;9.60;;;;;;;;;;10260991;28;20048;-69
2023/08/26 08:13:53;;;;;;;9.63;8.68;;;;;;;;;;10245891;28;20056;-70
2023/08/26 08:23:55;;;;;;;7.50;6.80;;;;;;;;;;10139085;26;20559;-69
2023/08/26 08:28:54;;;;;;;7.78;6.68;;;;;;;;;;10236684;22;20037;-68
2023/08/26 08:33:51;;;;;;;7.60;6.80;;;;;;;;;;10186228;28;20136;-70
2023/08/26 08:38:47;;;;;;;7.80;6.38;;;;;;;;;;10164893;28;20471;-70
2023/08/26 08:43:45;;;;;;;8.00;6.25;;;;;;;;;;10174796;28;20058;-69
2023/08/26 08:48:41;;;;;;;8.20;6.85;;;;;;;;;;10175411;28;20058;-70
2023/08/26 08:53:44;;;;;;;11.10;7.40;;;;;;;;;;10177342;28;20137;-70
2023/08/26 08:58:41;;;;;;;8.38;7.60;;;;;;;;;;10152693;28;20054;-69
2023/08/26 09:03:59;;;;;;;9.52;8.63;;;;;;;;;;10072650;27;10226370;-70
2023/08/26 09:08:59;;;;;;;8.18;7.28;;;;;;;;;;10353042;27;20052;-70
2023/08/26 09:13:55;;;;;;;8.95;7.18;;;;;;;;;;10354983;28;20757;-70
2023/08/26 09:18:54;;;;;;;7.40;6.60;;;;;;;;;;10379336;27;20543;-70
2023/08/26 09:23:51;;;;;;;8.13;6.28;;;;;;;;;;10368453;27;20691;-70
2023/08/26 09:28:47;;;;;;;6.40;5.80;;;;;;;;;;10367581;27;20089;-70
2023/08/26 09:33:59;;;;;;;7.88;7.13;;;;;;;;;;10374460;27;20071;-70
2023/08/26 09:38:56;;;;;;;6.78;6.05;;;;;;;;;;10367903;27;20044;-70
2023/08/26 09:43:52;;;;;;;6.70;5.78;;;;;;;;;;10385331;27;20056;-70
2023/08/26 10:00:03;;;;;;;9.75;6.18;;;;;;;;;;10214952;23;20569;-69
2023/08/26 10:05:04;;;;;;;8.20;6.47;;;;;;;;;;10140406;28;20050;-70
2023/08/26 10:10:03;;;;;;;8.32;6.43;;;;;;;;;;10130379;28;20043;-70
2023/08/26 10:15:01;;;;;;;10.93;7.18;;;;;;;;;;10083524;28;20122;-69
2023/08/26 10:25:22;;;;;;;8.57;6.40;;;;;;;;;;5183839;26;20055;-70
2023/08/26 10:35:30;;;;;;;6.63;6.03;;;;;;;;;;10137524;23;20047;-70
2023/08/26 10:40:35;;;;;;;7.20;6.60;;;;;;;;;;10107415;28;20068;-72
2023/08/26 10:45:32;;;;;;;7.13;5.97;;;;;;;;;;10107785;28;20118;-71
2023/08/26 10:50:28;;;;;;;6.78;6.15;;;;;;;;;;10106768;28;20530;-71
2023/08/26 10:55:30;;;;;;;10.90;5.90;;;;;;;;;;10096506;28;20780;-71
2023/08/26 11:00:26;;;;;;;6.65;6.05;;;;;;;;;;10103630;28;20510;-73
2023/08/26 11:05:23;;;;;;;7.93;7.07;;;;;;;;;;10096051;28;20419;-70
2023/08/26 11:10:30;;;;;;;5.95;5.43;;;;;;;;;;10097396;28;20423;-70
2023/08/26 11:15:35;;;;;;;5.55;5.05;;;;;;;;;;10099802;28;20094;-70
2023/08/26 11:20:32;;;;;;;6.18;5.57;;;;;;;;;;10106836;28;20058;-70
2023/08/26 11:25:29;;;;;;;6.00;5.40;;;;;;;;;;10095516;28;20866;-70
2023/08/26 11:30:25;;;;;;;5.55;5.05;;;;;;;;;;10108376;28;20046;-70
2023/08/26 11:35:23;;;;;;;6.40;5.28;;;;;;;;;;10104793;28;20512;-70
2023/08/26 11:40:19;;;;;;;6.47;5.22;;;;;;;;;;10109123;28;20059;-70
2023/08/26 11:45:15;;;;;;;7.40;5.47;;;;;;;;;;10104513;28;20062;-70
2023/08/26 12:00:36;;;;;;;8.73;5.30;;;;;;;;;;10508108;23;20126;-70
2023/08/26 12:05:42;;;;;;;5.93;5.38;;;;;;;;;;10103157;28;20054;-70
2023/08/26 12:10:39;;;;;;;5.70;5.20;;;;;;;;;;10106980;28;20053;-70
2023/08/26 12:15:38;;;;;;;6.82;5.75;;;;;;;;;;10096730;28;20039;-70
2023/08/26 12:20:34;;;;;;;6.05;5.18;;;;;;;;;;10096677;28;20050;-70
2023/08/26 12:25:33;;;;;;;6.35;5.10;;;;;;;;;;10104361;28;20077;-70
2023/08/26 12:30:29;;;;;;;6.57;5.75;;;;;;;;;;10106323;28;20977;-70
2023/08/26 12:35:26;;;;;;;5.68;5.15;;;;;;;;;;10095186;28;20495;-70
2023/08/26 12:51:10;;;;;;;7.50;6.28;;;;;;;;;;10161293;28;20054;-70
2023/08/26 12:56:07;;;;;;;8.05;6.65;;;;;;;;;;10145861;28;20065;-70
2023/08/26 13:01:03;;;;;;;6.72;6.15;;;;;;;;;;10141201;28;20042;-70
2023/08/26 13:06:00;;;;;;;7.20;6.50;;;;;;;;;;10143486;28;20533;-70
2023/08/26 13:10:57;;;;;;;7.22;6.53;;;;;;;;;;10132971;23;20058;-69
2023/08/26 13:15:55;;;;;;;7.65;6.95;;;;;;;;;;10098903;28;20067;-69
2023/08/26 13:20:51;;;;;;;8.88;6.85;;;;;;;;;;10106769;28;20376;-69
2023/08/26 13:25:48;;;;;;;7.53;6.65;;;;;;;;;;10094914;28;20054;-69
2023/08/26 13:30:44;;;;;;;7.15;6.45;;;;;;;;;;10093545;28;20093;-69
2023/08/26 13:35:41;;;;;;;9.85;7.45;;;;;;;;;;10089497;28;20050;-70
2023/08/26 13:40:37;;;;;;;8.15;6.43;;;;;;;;;;10094188;28;20050;-70
2023/08/26 13:45:33;;;;;;;7.82;7.13;;;;;;;;;;10104815;28;20495;-70
2023/08/26 13:50:30;;;;;;;7.90;7.20;;;;;;;;;;10109666;28;20562;-70
2023/08/26 13:55:26;;;;;;;8.05;6.88;;;;;;;;;;10112324;28;20054;-70
2023/08/26 14:00:22;;;;;;;8.18;7.38;;;;;;;;;;10103551;28;20078;-70
2023/08/26 14:05:19;;;;;;;8.88;6.93;;;;;;;;;;10106185;28;20066;-70
2023/08/26 14:10:18;;;;;;;11.63;8.20;;;;;;;;;;10105498;28;20522;-70
2023/08/26 14:15:14;;;;;;;8.75;7.95;;;;;;;;;;10091775;28;20058;-70
2023/08/26 14:25:22;;;;;;;8.70;7.63;;;;;;;;;;10449398;23;20588;-70
2023/08/26 14:35:16;;;;;;;9.52;8.63;;;;;;;;;;10155995;28;20089;-79
2023/08/26 14:40:13;;;;;;;10.05;8.70;;;;;;;;;;10150879;28;20078;-81
2023/08/26 14:45:10;;;;;;;14.75;9.35;;;;;;;;;;10156708;28;20707;-80
2023/08/26 14:50:09;;;;;;;9.85;8.43;;;;;;;;;;10123757;28;20669;-79
2023/08/26 14:55:06;;;;;;;8.23;7.43;;;;;;;;;;10143510;28;20086;-79
2023/08/26 15:00:04;;;;;;;9.45;8.55;;;;;;;;;;10152611;28;20081;-80
2023/08/26 15:05:01;;;;;;;8.38;7.57;;;;;;;;;;10145152;28;20517;-79
2023/08/26 15:09:57;;;;;;;9.15;8.05;;;;;;;;;;10179897;28;20137;-79
2023/08/26 15:14:57;;;;;;;8.93;7.40;;;;;;;;;;10188642;28;20046;-79
2023/08/26 15:19:58;;;;;;;8.75;7.00;;;;;;;;;;10191243;28;20042;-80
2023/08/26 15:24:55;;;;;;;8.07;6.97;;;;;;;;;;10205026;28;20524;-79
2023/08/26 15:29:52;;;;;;;9.98;6.80;;;;;;;;;;10207106;28;20104;-79
2023/08/26 15:34:48;;;;;;;11.13;6.47;;;;;;;;;;10196795;28;20462;-80
2023/08/26 15:39:44;;;;;;;6.60;5.90;;;;;;;;;;10185342;28;20058;-79
2023/08/26 15:44:41;;;;;;;10.20;6.35;;;;;;;;;;10169083;28;20429;-79
2023/08/26 15:49:38;;;;;;;11.55;5.63;;;;;;;;;;10169326;28;20077;-79
2023/08/26 15:54:36;;;;;;;6.53;5.82;;;;;;;;;;10162383;28;20487;-79
2023/08/26 15:59:35;;;;;;;6.45;5.72;;;;;;;;;;10194346;28;20156;-79
2023/08/26 16:04:32;;;;;;;6.80;6.13;;;;;;;;;;10193737;28;20472;-80
2023/08/26 16:09:29;;;;;;;6.85;5.75;;;;;;;;;;10201533;28;20144;-79
2023/08/26 16:14:25;;;;;;;6.80;6.10;;;;;;;;;;10166416;28;20127;-77
2023/08/26 16:19:22;;;;;;;9.63;5.47;;;;;;;;;;10198638;28;20121;-76
2023/08/26 16:24:18;;;;;;;6.28;5.68;;;;;;;;;;10185481;28;20489;-76
2023/08/26 16:29:15;;;;;;;8.13;5.47;;;;;;;;;;10178019;28;20059;-77
2023/08/26 16:34:11;;;;;;;6.43;5.82;;;;;;;;;;10203325;28;20053;-77
2023/08/26 16:39:08;;;;;;;7.85;6.22;;;;;;;;;;10170400;28;20054;-77
2023/08/26 16:44:04;;;;;;;7.13;6.43;;;;;;;;;;10145494;28;20142;-77
2023/08/26 16:49:01;;;;;;;6.93;6.22;;;;;;;;;;10168463;28;20077;-77
2023/08/26 16:53:58;;;;;;;6.65;6.05;;;;;;;;;;10180914;28;20510;-77
2023/08/26 16:58:54;;;;;;;6.78;6.18;;;;;;;;;;10182400;28;20132;-77
2023/08/26 17:03:53;;;;;;;9.10;7.00;;;;;;;;;;10183829;28;20042;-77
2023/08/26 17:08:52;;;;;;;9.68;6.70;;;;;;;;;;10175138;28;20050;-77
2023/08/26 17:13:48;;;;;;;6.75;6.13;;;;;;;;;;10185733;28;20124;-77
2023/08/26 17:18:45;;;;;;;7.85;5.93;;;;;;;;;;10185277;28;20052;-77
2023/08/26 17:23:42;;;;;;;9.20;6.28;;;;;;;;;;10169335;28;20089;-77
2023/08/26 17:28:41;;;;;;;6.80;6.10;;;;;;;;;;10192959;28;20053;-80
2023/08/26 17:34:22;;;;;;;;;;;;;;;;;;;;;
2023/08/26 17:39:47;;;;;;;6.35;5.75;;;;;;;;;;9989888;29;21386;-81
2023/08/26 17:44:52;;;;;;;8.10;5.47;;;;;;;;;;10139361;28;20514;-81
2023/08/26 17:49:55;;;;;;;5.82;5.32;;;;;;;;;;10175100;28;20053;-81
2023/08/26 17:55:01;;;;;;;6.18;5.57;;;;;;;;;;10175208;28;20511;-80
2023/08/26 17:59:59;;;;;;;6.90;5.80;;;;;;;;;;10191524;28;20050;-79
2023/08/26 18:04:58;;;;;;;8.20;5.63;;;;;;;;;;10169096;28;20401;-79
2023/08/26 18:10:02;;;;;;;5.78;5.25;;;;;;;;;;10201629;28;20062;-80
2023/08/26 18:15:02;;;;;;;6.85;6.20;;;;;;;;;;10185907;28;20065;-82
2023/08/26 18:20:12;;;;;;;8.00;6.47;;;;;;;;;;10189991;28;20421;-78
2023/08/26 18:25:27;;;;;;;8.73;6.13;;;;;;;;;;10170376;28;20060;-80
2023/08/26 18:30:24;;;;;;;6.97;5.95;;;;;;;;;;10186952;28;20049;-80
2023/08/26 18:35:35;;;;;;;6.30;5.70;;;;;;;;;;10172439;28;20058;-80
2023/08/26 18:40:34;;;;;;;8.32;5.70;;;;;;;;;;10170579;28;20104;-80
2023/08/26 18:45:31;;;;;;;6.68;6.05;;;;;;;;;;10171457;28;20069;-79
2023/08/26 18:50:31;;;;;;;7.80;6.88;;;;;;;;;;10171828;28;20049;-81
2023/08/26 18:55:35;;;;;;;6.85;6.28;;;;;;;;;;10187627;28;20070;-79
2023/08/26 19:00:37;;;;;;;8.32;6.28;;;;;;;;;;10180467;28;20090;-80
2023/08/26 19:05:36;;;;;;;7.50;6.72;;;;;;;;;;10191953;28;20092;-80
2023/08/26 19:10:35;;;;;;;7.55;6.85;;;;;;;;;;10181826;28;20052;-81
2023/08/26 19:15:36;;;;;;;7.55;6.40;;;;;;;;;;10185338;28;20696;-80
2023/08/26 19:20:42;;;;;;;7.30;6.60;;;;;;;;;;10174362;28;20046;-79
2023/08/26 19:25:42;;;;;;;7.97;7.15;;;;;;;;;;10163771;28;20057;-80
2023/08/26 19:30:45;;;;;;;12.70;7.97;;;;;;;;;;10182873;28;20057;-80
2023/08/26 19:35:43;;;;;;;8.60;7.15;;;;;;;;;;10190003;28;20445;-80
2023/08/26 19:40:40;;;;;;;9.07;7.47;;;;;;;;;;10198219;28;20084;-80
2023/08/26 19:45:39;;;;;;;9.20;7.60;;;;;;;;;;10191906;28;20093;-80
2023/08/26 19:50:41;;;;;;;8.03;7.23;;;;;;;;;;10181643;28;20042;-80
2023/08/26 19:55:38;;;;;;;8.25;7.05;;;;;;;;;;10195409;28;20488;-79
2023/08/26 20:00:37;;;;;;;8.65;6.85;;;;;;;;;;10168213;28;20093;-81
2023/08/26 20:05:36;;;;;;;8.02;7.22;;;;;;;;;;10185655;28;20058;-82
2023/08/26 20:10:33;;;;;;;8.48;6.97;;;;;;;;;;10187376;28;20052;-81
2023/08/26 20:15:32;;;;;;;7.32;6.65;;;;;;;;;;10174613;28;20053;-80
2023/08/26 20:20:31;;;;;;;;;;;;;;;;;;10187486;28;20128;-80
2023/08/26 20:25:31;;;;;;;9.07;7.22;;;;;;;;;;10188055;28;19984;-81
2023/08/26 20:30:51;;;;;;;8.73;7.22;;;;;;;;;;10184382;28;20551;-79
2023/08/26 20:35:48;;;;;;;9.90;6.43;;;;;;;;;;10206575;28;20049;-80
2023/08/26 20:40:48;;;;;;;8.10;7.30;;;;;;;;;;10204594;28;20521;-81
2023/08/26 20:45:45;;;;;;;9.95;7.00;;;;;;;;;;10175732;28;20056;-81
2023/08/26 20:50:44;;;;;;;6.50;5.90;;;;;;;;;;10184092;28;20046;-80
2023/08/26 20:55:40;;;;;;;7.32;6.50;;;;;;;;;;10181415;28;20045;-79
2023/08/26 21:00:37;;;;;;;8.55;6.72;;;;;;;;;;10176290;28;20088;-79
2023/08/26 21:05:34;;;;;;;7.70;6.97;;;;;;;;;;10172761;28;20471;-78
2023/08/26 21:10:31;;;;;;;7.60;6.90;;;;;;;;;;10194226;28;20050;-78
2023/08/26 21:15:30;;;;;;;9.07;7.15;;;;;;;;;;10176500;28;20058;-80
2023/08/26 21:20:27;;;;;;;11.07;7.82;;;;;;;;;;10182797;28;20053;-79
2023/08/26 21:25:24;;;;;;;8.02;7.32;;;;;;;;;;10176644;28;20054;-79
2023/08/26 21:30:26;;;;;;;9.20;7.40;;;;;;;;;;10191270;28;20418;-81
2023/08/26 21:35:25;;;;;;;7.80;7.10;;;;;;;;;;10167187;28;20053;-81
2023/08/26 21:40:21;;;;;;;8.63;7.82;;;;;;;;;;10172067;28;20061;-79
2023/08/26 21:45:18;;;;;;;8.38;7.68;;;;;;;;;;10191987;28;20434;-79
2023/08/26 21:50:15;;;;;;;8.93;8.02;;;;;;;;;;10173593;28;20054;-81
2023/08/26 21:55:13;;;;;;;9.30;8.32;;;;;;;;;;10194703;28;20144;-79
2023/08/26 22:00:11;;;;;;;8.57;7.78;;;;;;;;;;10187262;28;20136;-78
2023/08/26 22:05:08;;;;;;;8.35;7.65;;;;;;;;;;10170297;28;20058;-78
2023/08/26 22:10:05;;;;;;;9.18;8.27;;;;;;;;;;10188540;28;20050;-78
2023/08/26 22:15:02;;;;;;;9.70;8.73;;;;;;;;;;10183844;28;20663;-77
2023/08/26 22:20:00;;;;;;;9.75;8.75;;;;;;;;;;10189219;28;20085;-79
2023/08/26 22:24:59;;;;;;;9.90;9.00;;;;;;;;;;10195950;28;20068;-79
2023/08/26 22:29:55;;;;;;;9.90;8.95;;;;;;;;;;10211056;28;20050;-77
2023/08/26 22:34:52;;;;;;;9.77;8.88;;;;;;;;;;10200969;28;20433;-77
2023/08/26 22:39:48;;;;;;;10.07;9.05;;;;;;;;;;10202795;28;20453;-78
2023/08/26 22:44:45;;;;;;;10.35;9.35;;;;;;;;;;10197369;28;20057;-80
2023/08/26 22:49:41;;;;;;;10.35;9.45;;;;;;;;;;10178581;28;20053;-78
2023/08/26 22:54:38;;;;;;;11.48;10.38;;;;;;;;;;10195289;28;20081;-78
2023/08/26 22:59:34;;;;;;;11.57;10.45;;;;;;;;;;10198426;28;20123;-80
2023/08/26 23:04:31;;;;;;;14.52;10.88;;;;;;;;;;10179773;28;20049;-79
2023/08/26 23:09:27;;;;;;;11.05;10.05;;;;;;;;;;10196526;28;20046;-78
2023/08/26 23:14:24;;;;;;;10.85;9.80;;;;;;;;;;10196258;28;20073;-81
2023/08/26 23:19:21;;;;;;;11.98;10.77;;;;;;;;;;10186946;28;20049;-81
2023/08/26 23:24:17;;;;;;;13.07;10.45;;;;;;;;;;10193751;28;20068;-81
2023/08/26 23:29:13;;;;;;;12.40;10.75;;;;;;;;;;10196148;28;20513;-83
2023/08/26 23:34:10;;;;;;;11.38;9.70;;;;;;;;;;10195781;28;20080;-81
2023/08/26 23:39:14;;;;;;;10.93;9.93;;;;;;;;;;10179306;28;20058;-81
2023/08/26 23:44:10;;;;;;;12.68;10.77;;;;;;;;;;10195540;28;20104;-80
2023/08/26 23:49:07;;;;;;;11.85;9.68;;;;;;;;;;10182714;28;21373;-81
2023/08/26 23:54:03;;;;;;;9.82;8.93;;;;;;;;;;10183310;28;20052;-80
2023/08/26 23:59:00;;;;;;;10.02;9.00;;;;;;;;;;10197202;28;20100;-81
